CheckWX is a tool to help pilots better visualize weather data.  It is not intended as a substitute for an official pre-flight weather briefing.

03:04:57 UTC

LEBR METAR
Bardenas Reales
Bardenas Reales, Spain
Current

35 mins ago

LEBR 150230Z AUTO 29015KT 9999 NCD 16/08 Q1019
Observed
Jul-15 @ 02:30 UTC
Wind
  • 290° at 15 KTS
Visibility
10,000+ meters
Flight Rules
VFR
Cloud Levels
  • Clear skies
Temperature
16°C / 61°F
Dewpoint
C / 46°F
Humidity
59%
Altimeter
30.09" Hg
Pressure
1018.92 hPa
Previous

1 hour ago

LEBR 150200Z AUTO 30016KT 9999 NCD 16/08 Q1019
Observed
Jul-15 @ 02:00 UTC
Wind
  • 300° at 16 KTS
Visibility
10,000+ meters
Flight Rules
VFR
Cloud Levels
  • Clear skies
Temperature
16°C / 61°F
Dewpoint
C / 46°F
Humidity
59%
Altimeter
30.09" Hg
Pressure
1018.92 hPa
Previous

2 hours ago

LEBR 150130Z AUTO 29015KT 9999 NCD 16/09 Q1019
Observed
Jul-15 @ 01:30 UTC
Wind
  • 290° at 15 KTS
Visibility
10,000+ meters
Flight Rules
VFR
Cloud Levels
  • Clear skies
Temperature
16°C / 61°F
Dewpoint
C / 48°F
Humidity
63%
Altimeter
30.09" Hg
Pressure
1018.92 hPa